« Back
NWS Peachtree City, Ga » Text Product » CSG Terminal Aerodrome Forecast


Printer-friendly Version
Current Version              Previous Versions:   1  2  3  4  5  6  7  8  9  

Terminal Aerodrome Forecast

021
FTUS42 KFFC 141735
TAFCSG
TAF
KCSG 141735Z 1418/1518 11006KT P6SM SCT080
     FM150200 10006KT P6SM BKN035
     FM150500 10006KT P6SM BKN015
     FM151200 09003KT P6SM OVC007
     FM151500 09004KT 3SM BR OVC004=

USA.gov is the U.S. government's official web portal to all federal, state and local government web resources and services.